Map

Track Data

SID SEASON NUMBER BASIN SUBBASIN NAME ISO_TIME NATURE LAT LON WMO_WIND WMO_PRES WMO_AGENCY TRACK_TYPE DIST2LAND LANDFALL IFLAG USA_AGENCY USA_ATCF_ID USA_LAT USA_LON USA_RECORD USA_STATUS USA_WIND USA_PRES USA_SSHS USA_R34_NE USA_R34_SE USA_R34_SW USA_R34_NW USA_R50_NE USA_R50_SE USA_R50_SW USA_R50_NW USA_R64_NE USA_R64_SE USA_R64_SW USA_R64_NW USA_POCI USA_ROCI USA_RMW USA_EYE TOKYO_LAT TOKYO_LON TOKYO_GRADE TOKYO_WIND TOKYO_PRES TOKYO_R50_DIR TOKYO_R50_LONG TOKYO_R50_SHORT TOKYO_R30_DIR TOKYO_R30_LONG TOKYO_R30_SHORT TOKYO_LAND CMA_LAT CMA_LON CMA_CAT CMA_WIND CMA_PRES HKO_LAT HKO_LON HKO_CAT HKO_WIND HKO_PRES NEWDELHI_LAT NEWDELHI_LON NEWDELHI_GRADE NEWDELHI_WIND NEWDELHI_PRES NEWDELHI_CI NEWDELHI_DP NEWDELHI_POCI REUNION_LAT REUNION_LON REUNION_TYPE REUNION_WIND REUNION_PRES REUNION_TNUM REUNION_CI REUNION_RMW REUNION_R34_NE REUNION_R34_SE REUNION_R34_SW REUNION_R34_NW REUNION_R50_NE REUNION_R50_SE REUNION_R50_SW REUNION_R50_NW REUNION_R64_NE REUNION_R64_SE REUNION_R64_SW REUNION_R64_NW BOM_LAT BOM_LON BOM_TYPE BOM_WIND BOM_PRES BOM_TNUM BOM_CI BOM_RMW BOM_R34_NE BOM_R34_SE BOM_R34_SW BOM_R34_NW BOM_R50_NE BOM_R50_SE BOM_R50_SW BOM_R50_NW BOM_R64_NE BOM_R64_SE BOM_R64_SW BOM_R64_NW BOM_ROCI BOM_POCI BOM_EYE BOM_POS_METHOD BOM_PRES_METHOD NADI_LAT NADI_LON NADI_CAT NADI_WIND NADI_PRES WELLINGTON_LAT WELLINGTON_LON WELLINGTON_WIND WELLINGTON_PRES DS824_LAT DS824_LON DS824_STAGE DS824_WIND DS824_PRES TD9636_LAT TD9636_LON TD9636_STAGE TD9636_WIND TD9636_PRES TD9635_LAT TD9635_LON TD9635_WIND TD9635_PRES TD9635_ROCI NEUMANN_LAT NEUMANN_LON NEUMANN_CLASS NEUMANN_WIND NEUMANN_PRES MLC_LAT MLC_LON MLC_CLASS MLC_WIND MLC_PRES USA_GUST BOM_GUST BOM_GUST_PER REUNION_GUST REUNION_GUST_PER USA_SEAHGT USA_SEARAD_NE USA_SEARAD_SE USA_SEARAD_SW USA_SEARAD_NW STORM_SPEED STORM_DIR
2001345N05155 2001 101 WP MM NOT_NAMED 2001-12-10 12:00:00 TS 4.60000 155.400 main 955 955 O_____________ jtwc_wp WP312001 4.60000 155.400 TD 20 1004 -1 2 333
2001345N05155 2001 101 WP MM NOT_NAMED 2001-12-10 15:00:00 TS 4.70000 155.350 main 965 960 P_____________ WP312001 4.70000 155.350 TD 22 1003 -1 2 333
2001345N05155 2001 101 WP MM NOT_NAMED 2001-12-10 18:00:00 TS 4.80000 155.300 main 970 970 O_____________ jtwc_wp WP312001 4.80000 155.300 TD 25 1003 -1 1005 120 35 2 333
2001345N05155 2001 101 WP MM NOT_NAMED 2001-12-10 21:00:00 TS 4.90000 155.250 main 981 976 P_____________ WP312001 4.90000 155.250 TD 25 1002 -1 1005 120 35 2 333
2001345N05155 2001 101 WP MM NOT_NAMED 2001-12-11 00:00:00 TS 5.00000 155.200 main 986 986 O_____________ jtwc_wp WP312001 5.00000 155.200 TD 25 1002 -1 1005 120 35 2 324
2001345N05155 2001 101 WP MM NOT_NAMED 2001-12-11 03:00:00 TS 5.09249 155.113 main 991 991 P_____________ WP312001 5.09249 155.113 TD 25 1002 -1 1005 120 40 2 333
2001345N05155 2001 101 WP MM NOT_NAMED 2001-12-11 06:00:00 TS 5.20000 155.100 main 1000 1000 O_____________ jtwc_wp WP312001 5.20000 155.100 TD 25 1002 -1 1005 120 45 3 18
2001345N05155 2001 101 WP MM NOT_NAMED 2001-12-11 09:00:00 TS 5.40244 155.217 main 1025 1025 P_____________ WP312001 5.40244 155.217 TD 25 1002 -1 1005 120 45 5 53
2001345N05155 2001 101 WP MM NOT_NAMED 2001-12-11 12:00:00 TS 5.50000 155.500 main 1051 1050 O_____________ jtwc_wp WP312001 5.50000 155.500 TD 25 1002 -1 1005 120 45 7 96
2001345N05155 2001 101 WP MM NOT_NAMED 2001-12-11 15:00:00 TS 5.33246 155.925 main 1050 1049 P_____________ WP312001 5.33246 155.925 TD 25 1002 -1 1005 120 45 11 117
2001345N05155 2001 101 WP MM NOT_NAMED 2001-12-11 18:00:00 TS 5.00000 156.500 main 1054 1045 O_____________ jtwc_wp WP312001 5.00000 156.500 TD 25 1002 -1 1005 120 45 15 122
2001345N05155 2001 101 WP MM NOT_NAMED 2001-12-11 21:00:00 TS 4.54003 157.178 main 1048 1045 P_____________ WP312001 4.54003 157.178 TD 25 1003 -1 1006 120 52 16 120
2001345N05155 2001 101 WP MM NOT_NAMED 2001-12-12 00:00:00 TS 4.20000 157.900 main 1066 1066 O_____________ jtwc_wp WP312001 4.20000 157.900 TD 25 1004 -1 1008 120 60 15 102
2001345N05155 2001 101 WP MM NOT_NAMED 2001-12-12 03:00:00 TS 4.23008 158.647 main 1113 1113 P_____________ WP312001 4.23008 158.647 TD 25 1003 -1 1008 120 52 13 77
2001345N05155 2001 101 WP MM NOT_NAMED 2001-12-12 06:00:00 TS 4.50000 159.200 main 1180 1180 O_____________ jtwc_wp WP312001 4.50000 159.200 TD 25 1002 -1 1008 120 45 9 45
2001345N05155 2001 101 WP MM NOT_NAMED 2001-12-12 09:00:00 TS 4.89239 159.318 main 1222 1222 P_____________ WP312001 4.89239 159.318 TD 27 1001 -1 1007 120 42 8 7
2001345N05155 2001 101 WP MM NOT_NAMED 2001-12-12 12:00:00 TS 5.30000 159.300 main 1259 1259 O_____________ jtwc_wp WP312001 5.30000 159.300 TD 30 1000 -1 1007 120 40 7 11
2001345N05155 2001 101 WP MM NOT_NAMED 2001-12-12 15:00:00 TS 5.54496 159.448 main 1283 1283 P_____________ WP312001 5.54496 159.448 TD 32 998 -1 1007 120 37 6 45
2001345N05155 2001 101 WP MM NOT_NAMED 2001-12-12 18:00:00 TS 5.70000 159.700 main 1321 1321 O_____________ jtwc_wp WP312001 5.70000 159.700 TS 35 997 0 1007 120 35 7 67
2001345N05155 2001 101 WP MM NOT_NAMED 2001-12-12 21:00:00 TS 5.81009 160.067 main 1356 1356 P_____________ WP312001 5.81009 160.067 TS 27 1000 -1 1007 120 35 8 76
2001345N05155 2001 101 WP MM NOT_NAMED 2001-12-13 00:00:00 TS 5.90000 160.500 main 1392 O_____________ jtwc_wp WP312001 5.90000 160.500 TD 20 1004 -1 1007 120 35 9 78

Digital Typhoon Data and Search

About IBTrACS Database

This database is a web-friendly format of International Best Track Archive for Climate Stewardship (IBTrACS), a global best track data archive curated by NOAA dating back to 1842.

Updated: 2021-12-01